Time;durP1;ratioP1;P1;durP2;ratioP2;P2;SDS_P1;SDS_P2;PMS_P1;PMS_P2;Temp;Humidity;BMP_temperature;BMP_pressure;BME280_temperature;BME280_humidity;BME280_pressure;Samples;Min_cycle;Max_cycle;Signal;HPM_P1;HPM_P2
2022/08/24 00:00:17;;;;;;;2.03;1.67;;;;;;;20.71;68.94;100742.84;5073953;28;20029;-52
2022/08/24 00:02:43;;;;;;;2.05;1.83;;;;;;;20.66;68.87;100736.25;5072453;28;20497;-54
2022/08/24 00:05:09;;;;;;;2.47;2.10;;;;;;;20.60;68.63;100726.38;5055825;28;20032;-54
2022/08/24 00:07:36;;;;;;;2.50;2.30;;;;;;;20.64;68.43;100732.97;5055367;28;20037;-53
2022/08/24 00:10:05;;;;;;;2.95;2.17;;;;;;;20.62;69.32;100734.31;5073071;28;20056;-53
2022/08/24 00:12:31;;;;;;;2.28;2.03;;;;;;;20.36;69.58;100701.22;5073486;28;20066;-50
2022/08/24 00:14:58;;;;;;;2.10;1.95;;;;;;;20.45;69.69;100726.16;5056972;28;20029;-54
2022/08/24 00:17:24;;;;;;;2.28;2.08;;;;;;;20.45;69.54;100724.25;5074711;28;20108;-54
2022/08/24 00:19:50;;;;;;;2.70;2.00;;;;;;;20.49;69.47;100728.09;5056156;28;20119;-53
2022/08/24 00:22:16;;;;;;;2.38;2.22;;;;;;;20.51;69.05;100730.59;5073840;28;20104;-53
2022/08/24 00:24:43;;;;;;;2.10;1.75;;;;;;;20.50;69.32;100739.84;5074947;28;20032;-51
2022/08/24 00:27:11;;;;;;;2.35;1.73;;;;;;;20.49;69.51;100746.38;5077232;28;20025;-50
2022/08/24 00:29:38;;;;;;;2.10;1.40;;;;;;;20.53;68.74;100736.59;5059253;28;20028;-54
2022/08/24 00:32:04;;;;;;;1.80;1.38;;;;;;;20.45;69.83;100742.53;5059678;28;20028;-51
2022/08/24 00:34:31;;;;;;;1.33;1.23;;;;;;;20.33;70.41;100737.16;5077419;28;20031;-51
2022/08/24 00:36:57;;;;;;;2.95;1.55;;;;;;;20.37;69.83;100734.75;5076528;28;20385;-53
2022/08/24 00:39:23;;;;;;;2.70;1.40;;;;;;;20.34;70.01;100738.81;5058635;28;20032;-51
2022/08/24 00:41:50;;;;;;;1.35;1.20;;;;;;;20.36;70.30;100738.56;5058744;28;20127;-54
2022/08/24 00:44:18;;;;;;;1.60;1.10;;;;;;;20.40;69.85;100726.91;5076437;28;20100;-53
2022/08/24 00:46:57;;;;;;;1.50;1.33;;;;;;;20.40;70.21;100731.53;5060525;28;20063;-56
2022/08/24 00:49:32;;;;;;;0.95;0.95;;;;;;;20.22;69.82;100702.66;5059456;28;20046;-54
2022/08/24 00:52:09;;;;;;;1.65;1.00;;;;;;;20.38;69.54;100725.50;5075274;28;20489;-56
2022/08/24 00:54:39;;;;;;;0.77;0.77;;;;;;;20.43;70.01;100736.47;5077457;28;20486;-54
2022/08/24 00:57:09;;;;;;;1.20;1.00;;;;;;;20.44;70.48;100733.50;5077522;28;20035;-51
2022/08/24 00:59:42;;;;;;;1.42;1.02;;;;;;;20.55;68.90;100737.19;5077851;28;20036;-54
2022/08/24 01:02:12;;;;;;;1.15;1.05;;;;;;;20.56;69.46;100738.00;5075908;28;20490;-52
2022/08/24 01:04:47;;;;;;;1.85;1.60;;;;;;;20.60;69.50;100736.44;5077520;28;20477;-52
2022/08/24 01:07:15;;;;;;;1.90;1.77;;;;;;;20.61;69.44;100743.56;5077356;28;20020;-51
2022/08/24 01:09:40;;;;;;;2.25;2.05;;;;;;;20.63;68.93;100733.22;5075430;28;20028;-51
2022/08/24 01:12:07;;;;;;;1.80;1.70;;;;;;;20.71;68.87;100742.84;5058173;28;20035;-55
2022/08/24 01:14:34;;;;;;;2.50;2.05;;;;;;;20.65;69.35;100744.69;5076320;28;20369;-53
2022/08/24 01:19:50;;;;;;;2.97;2.78;;;;;;;20.73;69.13;100737.97;5061096;28;20107;-55
2022/08/24 01:22:44;;;;;;;2.78;2.58;;;;;;;20.60;68.87;100720.91;5075607;28;20541;-53
2022/08/24 01:25:10;;;;;;;4.53;3.03;;;;;;;20.75;69.14;100741.28;5075133;28;20039;-52
2022/08/24 01:27:36;;;;;;;4.32;3.17;;;;;;;20.66;69.62;100735.44;5075866;28;20032;-55
2022/08/24 01:30:08;;;;;;;3.45;3.15;;;;;;;20.68;69.06;100733.28;5074669;28;20032;-51
2022/08/24 01:32:33;;;;;;;2.95;2.70;;;;;;;20.66;69.71;100736.25;5075467;28;20029;-51
2022/08/24 01:35:00;;;;;;;3.00;2.80;;;;;;;20.60;69.81;100742.75;5075492;28;20020;-51
2022/08/24 01:37:25;;;;;;;2.88;2.65;;;;;;;20.52;70.43;100745.03;5075866;28;20119;-53
2022/08/24 01:39:56;;;;;;;2.72;2.40;;;;;;;20.57;69.71;100743.22;5075531;28;20438;-50
2022/08/24 01:42:22;;;;;;;1.90;1.80;;;;;;;20.58;69.84;100746.75;5075572;28;20028;-52
2022/08/24 01:44:48;;;;;;;2.13;1.92;;;;;;;20.61;69.80;100759.94;5074995;28;20412;-51
2022/08/24 01:47:15;;;;;;;2.28;2.03;;;;;;;20.63;69.25;100744.94;5073961;28;20029;-52
2022/08/24 01:49:44;;;;;;;1.50;1.40;;;;;;;20.74;68.96;100748.63;5074970;28;20477;-51
2022/08/24 01:52:17;;;;;;;1.50;1.40;;;;;;;20.80;68.36;100760.44;5075564;28;20093;-51
2022/08/24 01:54:43;;;;;;;1.55;1.45;;;;;;;20.74;69.04;100747.81;5075425;28;20477;-51
2022/08/24 01:57:09;;;;;;;3.08;1.48;;;;;;;20.71;69.27;100746.44;5075331;28;20063;-51
2022/08/24 01:59:35;;;;;;;1.85;1.42;;;;;;;20.63;69.17;100736.75;5074675;28;20032;-50
2022/08/24 02:02:07;;;;;;;1.02;1.02;;;;;;;20.73;68.86;100743.41;5075000;28;20043;-51
2022/08/24 02:04:35;;;;;;;1.20;1.20;;;;;;;20.75;68.96;100741.28;5074960;28;20111;-51
2022/08/24 02:07:01;;;;;;;1.40;1.30;;;;;;;20.86;68.62;100759.44;5075113;28;20047;-50
2022/08/24 02:09:27;;;;;;;1.05;1.02;;;;;;;20.86;68.12;100756.69;5074890;28;20453;-53
2022/08/24 02:11:54;;;;;;;1.27;1.17;;;;;;;20.88;68.83;100760.00;5075259;28;20110;-56
2022/08/24 02:14:22;;;;;;;1.10;1.00;;;;;;;20.90;68.15;100765.22;5057209;28;20020;-51
2022/08/24 02:16:48;;;;;;;1.40;1.30;;;;;;;20.88;68.62;100754.53;5074891;28;20032;-53
2022/08/24 02:19:14;;;;;;;1.42;1.33;;;;;;;20.90;68.75;100762.47;5075162;28;20032;-51
2022/08/24 02:21:39;;;;;;;1.33;1.23;;;;;;;20.74;68.97;100753.28;5074842;28;20417;-51
2022/08/24 02:24:06;;;;;;;1.02;1.02;;;;;;;20.83;68.81;100759.94;5074631;28;20028;-52
2022/08/24 02:26:32;;;;;;;1.83;1.73;;;;;;;20.81;69.37;100764.81;5074466;28;20033;-52
2022/08/24 02:28:58;;;;;;;1.60;1.50;;;;;;;20.78;69.25;100754.41;5073480;28;20032;-50
2022/08/24 02:31:23;;;;;;;2.22;2.03;;;;;;;20.66;69.33;100754.53;5074645;28;20084;-51
2022/08/24 02:33:49;;;;;;;1.95;1.63;;;;;;;20.69;69.41;100749.41;5074699;28;20024;-54
2022/08/24 02:36:18;;;;;;;2.22;2.03;;;;;;;20.76;69.56;100767.50;5074537;28;20088;-54
2022/08/24 02:38:44;;;;;;;2.00;1.90;;;;;;;20.72;69.23;100753.53;5074690;28;20029;-53
2022/08/24 02:41:11;;;;;;;1.73;1.63;;;;;;;20.73;69.01;100747.00;5056917;28;20053;-53
2022/08/24 02:43:37;;;;;;;2.25;2.00;;;;;;;20.76;69.35;100751.94;5073422;28;20039;-53
2022/08/24 02:46:02;;;;;;;3.33;1.98;;;;;;;20.79;69.46;100756.06;5074100;28;20480;-52
2022/08/24 02:48:28;;;;;;;2.50;2.30;;;;;;;20.83;68.99;100752.56;5073719;28;20067;-55
2022/08/24 02:50:54;;;;;;;2.40;2.20;;;;;;;20.86;68.85;100757.53;5072798;28;20036;-52
2022/08/24 02:53:21;;;;;;;1.73;1.63;;;;;;;20.84;68.88;100751.50;5073906;28;20055;-52
2022/08/24 02:55:47;;;;;;;2.30;2.10;;;;;;;20.69;68.82;100730.31;5074223;28;20024;-53
2022/08/24 02:58:15;;;;;;;3.28;2.20;;;;;;;20.74;68.84;100743.16;5074119;28;20033;-54
2022/08/24 03:00:43;;;;;;;1.90;1.80;;;;;;;20.81;68.95;100752.00;5056274;28;20032;-52
2022/08/24 03:03:10;;;;;;;1.83;1.73;;;;;;;20.82;68.84;100747.34;5074101;28;20465;-56
2022/08/24 03:05:36;;;;;;;1.88;1.77;;;;;;;20.74;69.27;100743.16;5039335;28;20039;-56
2022/08/24 03:08:03;;;;;;;2.50;1.85;;;;;;;20.75;69.24;100750.28;5056374;28;20031;-56
2022/08/24 03:10:28;;;;;;;1.70;1.60;;;;;;;20.64;69.73;100740.34;5074061;28;20028;-53
2022/08/24 03:12:55;;;;;;;1.80;1.70;;;;;;;20.63;70.07;100747.66;5055848;28;20046;-52
2022/08/24 03:15:21;;;;;;;1.70;1.15;;;;;;;20.62;70.07;100754.22;5073780;28;20032;-54
2022/08/24 03:17:48;;;;;;;1.30;1.20;;;;;;;20.66;69.56;100755.34;5073950;28;20032;-52
2022/08/24 03:20:17;;;;;;;1.40;1.30;;;;;;;20.68;69.75;100755.94;5073926;28;20040;-52
2022/08/24 03:22:43;;;;;;;1.00;1.00;;;;;;;20.68;69.41;100746.94;5072406;28;20040;-53
2022/08/24 03:25:11;;;;;;;1.30;1.20;;;;;;;20.71;69.17;100751.03;5073248;28;20029;-51
2022/08/24 03:27:37;;;;;;;1.40;1.30;;;;;;;20.70;69.06;100750.22;5072297;28;20191;-53
2022/08/24 03:30:05;;;;;;;2.15;1.40;;;;;;;20.70;68.96;100750.22;5072700;28;20440;-56
2022/08/24 03:32:31;;;;;;;1.55;1.38;;;;;;;20.66;69.72;100752.63;5072815;28;20111;-52
2022/08/24 03:34:57;;;;;;;1.40;1.30;;;;;;;20.66;69.47;100743.63;5055605;28;20074;-51
2022/08/24 03:37:23;;;;;;;1.10;1.10;;;;;;;20.69;68.82;100746.69;5055550;28;20531;-53
2022/08/24 03:39:49;;;;;;;1.40;1.30;;;;;;;20.77;68.73;100750.03;5073349;28;20102;-55
2022/08/24 03:42:16;;;;;;;1.40;1.30;;;;;;;20.69;68.79;100740.41;5055280;28;20135;-54
2022/08/24 03:44:41;;;;;;;1.23;1.23;;;;;;;20.71;68.58;100745.59;5073586;28;20035;-54
2022/08/24 03:47:09;;;;;;;1.50;1.40;;;;;;;20.59;69.43;100745.69;5056201;28;20028;-51
2022/08/24 03:49:36;;;;;;;2.05;1.95;;;;;;;20.48;70.16;100747.44;5073844;28;20467;-51
2022/08/24 03:52:03;;;;;;;1.58;1.48;;;;;;;20.31;70.82;100751.03;5073427;28;20102;-51
2022/08/24 03:54:30;;;;;;;1.80;1.70;;;;;;;20.21;71.25;100750.91;5055031;28;20138;-54
2022/08/24 03:56:57;;;;;;;1.80;1.70;;;;;;;20.17;70.88;100743.47;5056020;28;20098;-55
2022/08/24 03:59:24;;;;;;;1.70;1.60;;;;;;;20.08;71.25;100741.19;5075328;28;20025;-53
2022/08/24 04:01:50;;;;;;;3.60;1.77;;;;;;;20.08;71.04;100741.19;5077117;28;20028;-55
2022/08/24 04:04:16;;;;;;;2.88;1.70;;;;;;;19.98;71.54;100742.94;5077612;28;20036;-54
2022/08/24 04:06:43;;;;;;;3.83;1.60;;;;;;;19.88;71.56;100735.44;5076536;28;20032;-55
2022/08/24 04:09:10;;;;;;;1.83;1.58;;;;;;;19.85;71.48;100739.47;5059408;28;20072;-51
2022/08/24 04:11:36;;;;;;;1.88;1.77;;;;;;;19.83;72.19;100744.34;5077211;28;20492;-50
2022/08/24 04:14:02;;;;;;;1.70;1.60;;;;;;;19.78;72.41;100751.59;5077662;28;20044;-50
2022/08/24 04:16:29;;;;;;;1.50;1.40;;;;;;;19.70;72.11;100740.00;5077697;28;20040;-52
2022/08/24 04:18:56;;;;;;;1.50;1.40;;;;;;;19.79;72.00;100753.28;5077477;28;20405;-51
2022/08/24 04:21:27;;;;;;;1.20;1.20;;;;;;;19.61;71.69;100736.03;5077190;28;20037;-50
2022/08/24 04:23:53;;;;;;;1.27;1.17;;;;;;;19.73;72.35;100753.19;5077832;28;20036;-52
2022/08/24 04:26:21;;;;;;;0.90;0.90;;;;;;;19.73;72.31;100758.63;5076940;28;20040;-52
2022/08/24 04:28:47;;;;;;;1.20;1.10;;;;;;;19.75;71.97;100746.66;5076621;28;20056;-50
2022/08/24 04:31:16;;;;;;;1.10;1.00;;;;;;;19.83;72.16;100759.88;5058925;28;20056;-50
2022/08/24 04:33:43;;;;;;;0.90;0.90;;;;;;;19.89;71.43;100758.88;5076664;28;20036;-53
2022/08/24 04:36:10;;;;;;;1.05;1.05;;;;;;;20.01;70.93;100764.25;5076998;28;20029;-50
2022/08/24 04:38:36;;;;;;;0.95;0.95;;;;;;;19.98;71.89;100767.47;5058824;28;20086;-54
2022/08/24 04:41:05;;;;;;;1.00;1.00;;;;;;;20.02;71.50;100766.72;5075997;28;20028;-52
2022/08/24 04:43:32;;;;;;;0.80;0.80;;;;;;;20.08;71.28;100773.09;5076391;28;20492;-51
2022/08/24 04:45:57;;;;;;;1.13;1.02;;;;;;;20.05;71.89;100776.31;5058707;28;20032;-55
2022/08/24 04:48:23;;;;;;;0.88;0.77;;;;;;;20.07;71.68;100766.78;5078861;28;20029;-52
2022/08/24 04:50:49;;;;;;;2.40;0.98;;;;;;;20.04;71.68;100755.56;5077565;28;20154;-55
2022/08/24 04:53:15;;;;;;;1.02;0.93;;;;;;;20.01;71.76;100756.88;5076705;28;20470;-50
2022/08/24 04:55:46;;;;;;;0.60;0.60;;;;;;;20.06;72.04;100769.78;5077587;28;20051;-54
2022/08/24 04:58:13;;;;;;;0.70;0.70;;;;;;;20.09;71.82;100763.81;5078942;28;20115;-54
2022/08/24 05:00:39;;;;;;;0.60;0.60;;;;;;;20.09;72.09;100777.44;5064249;28;20027;-51
2022/08/24 05:03:06;;;;;;;0.90;0.80;;;;;;;20.06;72.04;100770.59;5079905;28;20028;-51
2022/08/24 05:05:33;;;;;;;0.75;0.75;;;;;;;20.10;72.25;100777.19;5075421;28;20028;-54
2022/08/24 05:07:59;;;;;;;0.63;0.63;;;;;;;20.17;71.61;100779.78;5076802;28;20112;-51
2022/08/24 05:10:25;;;;;;;0.68;0.68;;;;;;;20.07;71.98;100769.50;5076038;28;20481;-51
2022/08/24 05:12:51;;;;;;;0.90;0.90;;;;;;;20.17;71.65;100782.50;5076008;28;20085;-53
2022/08/24 05:15:17;;;;;;;1.35;1.00;;;;;;;20.12;71.94;100766.06;5076182;28;20029;-50
2022/08/24 05:17:42;;;;;;;1.88;1.20;;;;;;;20.25;71.69;100782.06;5057839;28;20353;-52
2022/08/24 05:20:10;;;;;;;1.10;1.00;;;;;;;20.26;71.71;100782.88;5075982;28;20035;-51
2022/08/24 05:22:36;;;;;;;1.40;1.30;;;;;;;20.27;71.74;100779.91;5076041;28;20027;-51
2022/08/24 05:25:03;;;;;;;1.13;1.00;;;;;;;20.19;71.74;100769.44;5075789;28;20107;-54
2022/08/24 05:27:29;;;;;;;1.17;1.08;;;;;;;20.24;72.26;100785.84;5075797;28;20036;-52
2022/08/24 05:29:55;;;;;;;1.15;0.95;;;;;;;20.20;72.12;100792.88;5057745;28;20461;-54
2022/08/24 05:32:21;;;;;;;0.70;0.70;;;;;;;20.08;72.28;100773.09;5075813;28;20059;-52
2022/08/24 05:34:47;;;;;;;0.90;0.90;;;;;;;20.17;72.45;100787.09;5075812;28;20448;-53
2022/08/24 05:37:13;;;;;;;1.40;0.90;;;;;;;20.25;72.19;100795.69;5075336;28;20029;-51
2022/08/24 05:39:38;;;;;;;1.00;0.90;;;;;;;20.29;72.10;100796.84;5057645;28;20123;-55
2022/08/24 05:42:05;;;;;;;0.90;0.90;;;;;;;20.28;72.42;100797.09;5057881;28;20028;-51
2022/08/24 05:44:31;;;;;;;1.52;1.20;;;;;;;20.35;71.71;100796.94;5074390;28;20033;-51
2022/08/24 05:46:58;;;;;;;1.65;1.02;;;;;;;20.42;71.57;100798.41;5074185;28;20078;-54
2022/08/24 05:49:25;;;;;;;1.00;0.73;;;;;;;20.29;71.59;100783.22;5075416;28;20052;-53
2022/08/24 05:51:51;;;;;;;1.15;0.80;;;;;;;20.37;71.65;100795.59;5075079;28;20072;-53
2022/08/24 05:54:17;;;;;;;0.88;0.88;;;;;;;20.43;71.52;100799.22;5075695;28;20064;-51
2022/08/24 05:56:44;;;;;;;0.98;0.75;;;;;;;20.31;71.51;100789.22;5075486;28;20080;-52
2022/08/24 05:59:11;;;;;;;3.15;0.73;;;;;;;20.38;71.58;100805.44;5075619;28;20028;-54
2022/08/24 06:01:37;;;;;;;2.72;0.60;;;;;;;20.24;71.57;100790.50;5075511;28;20032;-50
2022/08/24 06:04:04;;;;;;;0.82;0.60;;;;;;;20.36;71.60;100814.97;5075085;28;20369;-51
2022/08/24 06:06:30;;;;;;;2.42;0.75;;;;;;;20.36;71.19;100804.03;5075188;28;20032;-50
2022/08/24 06:08:58;;;;;;;0.73;0.70;;;;;;;20.49;70.89;100814.59;5074059;28;20028;-51
2022/08/24 06:11:28;;;;;;;1.10;0.77;;;;;;;20.52;71.14;100816.00;5074326;28;20029;-53
2022/08/24 06:13:57;;;;;;;0.50;0.50;;;;;;;20.53;70.69;100815.75;5074980;28;20028;-52
2022/08/24 06:16:23;;;;;;;1.02;0.80;;;;;;;20.61;70.74;100820.78;5056994;28;20365;-52
2022/08/24 06:18:51;;;;;;;1.08;0.70;;;;;;;20.55;70.92;100818.22;5073879;28;20029;-55
2022/08/24 06:21:21;;;;;;;3.15;0.60;;;;;;;20.61;70.56;100823.50;5073192;28;20029;-54
2022/08/24 06:23:48;;;;;;;0.60;0.60;;;;;;;20.61;70.43;100822.69;5074487;28;20032;-55
2022/08/24 06:29:01;;;;;;;0.57;0.57;;;;;;;20.60;70.63;100838.25;5060267;28;20026;-52
2022/08/24 06:31:27;;;;;;;0.68;0.68;;;;;;;20.62;70.16;100829.81;5074953;28;20372;-54
2022/08/24 06:33:53;;;;;;;1.05;0.70;;;;;;;20.58;70.03;100828.63;5074650;28;20037;-53
2022/08/24 06:36:20;;;;;;;1.70;0.80;;;;;;;20.61;70.34;100842.63;5074706;28;20032;-50
2022/08/24 06:38:47;;;;;;;2.45;0.60;;;;;;;20.50;70.40;100835.34;5074445;28;20062;-52
2022/08/24 06:41:13;;;;;;;1.73;0.85;;;;;;;20.59;70.11;100839.28;5074753;28;20032;-50
2022/08/24 06:43:39;;;;;;;2.55;0.60;;;;;;;20.68;70.15;100837.81;5074478;28;20028;-54
2022/08/24 06:46:06;;;;;;;0.60;0.57;;;;;;;20.76;69.65;100847.47;5075202;28;20107;-51
2022/08/24 06:48:32;;;;;;;0.90;0.52;;;;;;;20.93;68.79;100844.72;5072984;28;20028;-53
2022/08/24 06:50:58;;;;;;;1.50;0.50;;;;;;;21.01;68.51;100837.97;5056414;28;20107;-53
2022/08/24 06:53:24;;;;;;;3.08;0.60;;;;;;;21.16;68.17;100835.41;5073789;28;20068;-52
2022/08/24 06:55:57;;;;;;;4.95;0.70;;;;;;;21.17;67.94;100850.75;5056951;28;20027;-54
2022/08/24 06:58:24;;;;;;;0.95;0.57;;;;;;;21.25;67.22;100833.06;5075182;28;20032;-54
2022/08/24 07:00:50;;;;;;;1.75;0.65;;;;;;;21.30;67.06;100837.75;5075401;28;20028;-53
2022/08/24 07:03:17;;;;;;;1.02;0.50;;;;;;;21.39;66.45;100847.97;5074988;28;20035;-55
2022/08/24 07:05:55;;;;;;;1.30;0.40;;;;;;;21.47;65.94;100838.53;5057354;28;20079;-54
2022/08/24 07:08:21;;;;;;;2.00;0.40;;;;;;;21.54;65.66;100841.88;5074992;28;20035;-54
2022/08/24 07:10:47;;;;;;;1.00;0.50;;;;;;;21.61;65.57;100844.41;5074805;28;20029;-54
2022/08/24 07:13:13;;;;;;;1.02;0.40;;;;;;;21.65;65.02;100840.06;5074348;28;20050;-54
2022/08/24 07:15:41;;;;;;;2.70;0.70;;;;;;;21.63;65.39;100858.63;5074116;28;20025;-51
2022/08/24 07:18:10;;;;;;;3.20;0.55;;;;;;;21.72;64.77;100851.63;5073709;28;20085;-54
2022/08/24 07:20:37;;;;;;;6.57;0.70;;;;;;;21.77;64.64;100864.53;5073190;28;20361;-55
2022/08/24 07:23:04;;;;;;;0.98;0.77;;;;;;;21.75;65.00;100867.50;5072853;28;20115;-55
2022/08/24 07:25:32;;;;;;;3.65;0.77;;;;;;;21.76;64.95;100865.59;5073827;28;20025;-55
2022/08/24 07:27:59;;;;;;;0.80;0.43;;;;;;;21.63;64.93;100840.31;5074510;28;20035;-53
2022/08/24 07:30:26;;;;;;;1.35;0.63;;;;;;;21.76;64.93;100869.16;5073875;28;20033;-54
2022/08/24 07:32:53;;;;;;;1.33;0.45;;;;;;;21.69;64.99;100856.78;5055593;28;20028;-52
2022/08/24 07:35:18;;;;;;;2.53;0.60;;;;;;;21.71;65.44;100874.59;5073779;28;20060;-55
2022/08/24 07:37:44;;;;;;;0.68;0.50;;;;;;;21.68;65.31;100874.28;5074082;28;20060;-53
2022/08/24 07:40:11;;;;;;;0.82;0.50;;;;;;;21.61;65.66;100875.28;5071881;28;20111;-54
2022/08/24 07:42:38;;;;;;;1.35;0.57;;;;;;;21.60;65.46;100881.00;5055681;28;20020;-51
2022/08/24 07:45:05;;;;;;;1.27;0.47;;;;;;;21.60;65.48;100881.00;5073641;28;20102;-52
2022/08/24 07:47:31;;;;;;;0.60;0.50;;;;;;;21.50;65.33;100883.66;5073957;28;20119;-50
2022/08/24 07:49:57;;;;;;;0.77;0.52;;;;;;;21.55;65.46;100878.25;5073881;28;20090;-53
2022/08/24 07:52:23;;;;;;;0.63;0.60;;;;;;;21.63;64.89;100884.06;5073140;28;20045;-53
2022/08/24 07:54:49;;;;;;;3.08;0.63;;;;;;;21.52;65.24;100878.75;5073308;28;20108;-52
2022/08/24 07:57:15;;;;;;;3.20;0.70;;;;;;;21.61;65.25;100872.56;5073787;28;20051;-51
2022/08/24 07:59:40;;;;;;;1.08;0.40;;;;;;;21.88;64.19;100890.03;5073098;28;20051;-51
2022/08/24 08:02:07;;;;;;;2.85;0.60;;;;;;;21.94;64.14;100876.16;5073882;28;20055;-51
2022/08/24 08:04:33;;;;;;;0.60;0.60;;;;;;;21.99;63.43;100878.09;5073377;28;20111;-50
2022/08/24 08:07:00;;;;;;;0.82;0.40;;;;;;;22.05;63.70;100885.28;5073256;28;20063;-52
2022/08/24 08:09:26;;;;;;;3.60;0.77;;;;;;;22.18;62.96;100876.66;5073315;28;20078;-53
2022/08/24 08:11:52;;;;;;;1.17;0.70;;;;;;;22.24;62.38;100880.25;5072189;28;20080;-54
2022/08/24 08:14:18;;;;;;;0.60;0.55;;;;;;;22.34;62.25;100880.38;5055148;28;20032;-53
2022/08/24 08:16:44;;;;;;;0.70;0.50;;;;;;;22.63;61.96;100890.97;5073249;28;20047;-54
2022/08/24 08:19:10;;;;;;;0.77;0.50;;;;;;;22.85;61.12;100873.56;5073245;28;20029;-55
2022/08/24 08:24:33;;;;;;;1.00;0.90;;;;;;;22.97;59.93;100883.22;5057881;28;20028;-55
2022/08/24 08:26:59;;;;;;;2.15;0.68;;;;;;;22.92;60.25;100874.13;5072529;28;20099;-55
2022/08/24 08:29:26;;;;;;;1.55;0.70;;;;;;;22.95;60.32;100884.56;5072875;28;20056;-53
2022/08/24 08:31:52;;;;;;;1.38;1.05;;;;;;;22.68;60.86;100890.16;5071848;28;20036;-51
2022/08/24 08:34:19;;;;;;;1.48;1.10;;;;;;;22.51;61.77;100885.69;5072080;28;20322;-54
2022/08/24 08:36:45;;;;;;;1.10;1.00;;;;;;;22.40;61.65;100883.97;5073112;28;20507;-55
2022/08/24 08:39:14;;;;;;;0.95;0.80;;;;;;;22.37;62.36;100895.44;5073258;28;20086;-54
2022/08/24 08:42:13;;;;;;;2.58;1.10;;;;;;;22.54;61.33;100893.34;5073202;28;20121;-52
2022/08/24 08:45:02;;;;;;;4.15;1.40;;;;;;;22.77;60.92;100889.41;5055651;28;20032;-56
2022/08/24 08:47:55;;;;;;;1.40;1.30;;;;;;;23.07;59.97;100895.31;5076205;28;20063;-55
2022/08/24 08:50:43;;;;;;;1.25;1.13;;;;;;;23.10;60.17;100881.09;5077173;28;20040;-52
2022/08/24 08:53:33;;;;;;;1.23;1.20;;;;;;;23.19;59.28;100893.19;5076442;28;20044;-56
2022/08/24 08:56:14;;;;;;;1.70;1.60;;;;;;;23.46;58.42;100892.19;5059023;28;20082;-53
2022/08/24 08:59:06;;;;;;;2.92;1.63;;;;;;;23.39;59.53;100886.97;5059183;28;20381;-55
2022/08/24 09:02:00;;;;;;;1.70;1.60;;;;;;;23.66;58.60;100886.78;5075869;28;20037;-53
2022/08/24 09:05:04;;;;;;;2.08;1.88;;;;;;;23.68;57.49;100873.63;5061561;28;20044;-52
2022/08/24 09:08:10;;;;;;;2.67;2.47;;;;;;;23.88;57.56;100877.50;5075411;28;20036;-53
2022/08/24 09:11:13;;;;;;;2.33;2.13;;;;;;;24.16;56.42;100876.16;5061516;28;20264;-53
2022/08/24 09:14:19;;;;;;;4.18;2.30;;;;;;;24.91;54.36;100872.78;5058185;28;20033;-55
2022/08/24 09:17:15;;;;;;;2.45;2.25;;;;;;;26.70;50.37;100869.97;5061087;28;20043;-51
2022/08/24 09:20:06;;;;;;;2.17;1.98;;;;;;;28.07;46.17;100865.66;5075153;28;20044;-51
2022/08/24 09:22:38;;;;;;;1.90;1.80;;;;;;;29.25;44.06;100869.81;5075933;28;20047;-51
2022/08/24 09:25:17;;;;;;;3.70;1.70;;;;;;;30.09;43.25;100864.84;5075872;28;20105;-56
2022/08/24 09:28:11;;;;;;;1.70;1.60;;;;;;;31.34;39.42;100861.13;5076302;28;20036;-51
2022/08/24 09:31:06;;;;;;;1.88;1.70;;;;;;;32.18;39.44;100851.50;5058535;28;20373;-56
2022/08/24 09:33:43;;;;;;;3.28;1.70;;;;;;;32.85;37.89;100854.69;5061351;28;20032;-55
2022/08/24 09:36:26;;;;;;;1.70;1.60;;;;;;;32.72;36.79;100855.75;5058176;28;20037;-54
2022/08/24 09:39:04;;;;;;;1.63;1.33;;;;;;;31.81;38.01;100856.59;5076978;28;20025;-55
2022/08/24 09:42:10;;;;;;;1.58;1.48;;;;;;;31.23;39.26;100860.63;5076256;28;20093;-55
2022/08/24 09:44:59;;;;;;;1.50;1.40;;;;;;;29.77;40.31;100872.25;5060575;28;20040;-55
2022/08/24 09:47:50;;;;;;;1.30;1.20;;;;;;;30.03;39.16;100866.91;5075904;28;20029;-53
2022/08/24 09:50:39;;;;;;;2.90;1.48;;;;;;;29.87;40.41;100865.66;5040870;28;20029;-53
2022/08/24 09:53:45;;;;;;;1.65;1.55;;;;;;;29.22;40.41;100873.19;5075357;28;20049;-53
2022/08/24 09:56:38;;;;;;;1.40;1.30;;;;;;;28.84;41.74;100878.91;5059665;28;20525;-53
2022/08/24 09:59:43;;;;;;;2.17;1.27;;;;;;;28.54;42.92;100864.56;5057489;28;20431;-52
2022/08/24 10:02:39;;;;;;;1.30;1.20;;;;;;;27.86;43.57;100870.66;5061415;28;20032;-51
2022/08/24 10:05:37;;;;;;;1.52;1.35;;;;;;;27.57;44.71;100877.16;5057102;28;20128;-52
2022/08/24 10:08:42;;;;;;;2.22;0.95;;;;;;;27.29;44.85;100860.44;5074068;28;20036;-54
2022/08/24 10:11:48;;;;;;;1.20;1.02;;;;;;;26.94;45.58;100862.50;5060991;28;20469;-54
2022/08/24 10:14:43;;;;;;;1.27;0.90;;;;;;;26.88;46.68;100862.88;5063920;28;20032;-51
2022/08/24 10:17:39;;;;;;;1.65;1.10;;;;;;;27.00;45.83;100872.34;5076015;28;20029;-54
2022/08/24 10:20:24;;;;;;;1.60;1.30;;;;;;;27.00;45.78;100860.50;5061051;28;20028;-51
2022/08/24 10:23:03;;;;;;;;;;;;;;;27.96;44.05;100859.47;5057949;28;20029;-54
2022/08/24 10:25:53;;;;;;;1.30;0.80;;;;;;;27.91;44.46;100857.59;5075520;28;19928;-50
2022/08/24 10:28:59;;;;;;;1.33;0.90;;;;;;;27.80;44.22;100864.38;5043806;28;20020;-51
2022/08/24 10:32:04;;;;;;;3.15;1.42;;;;;;;27.38;44.19;100857.84;5060659;28;20067;-49
2022/08/24 10:34:53;;;;;;;5.05;0.90;;;;;;;27.12;45.66;100852.63;5060354;28;20028;-50
2022/08/24 10:37:36;;;;;;;2.60;1.20;;;;;;;27.21;44.85;100852.81;5074934;28;20044;-51
2022/08/24 10:40:30;;;;;;;1.23;1.13;;;;;;;27.18;45.29;100847.88;5074465;28;20086;-52
2022/08/24 10:43:38;;;;;;;10.18;2.10;;;;;;;27.10;45.40;100846.59;5074550;28;20261;-50
2022/08/24 10:46:29;;;;;;;1.15;1.02;;;;;;;27.52;43.96;100838.59;5075446;28;20082;-53
2022/08/24 10:49:34;;;;;;;1.33;0.90;;;;;;;28.53;41.95;100837.25;5075255;28;20039;-50
2022/08/24 10:52:39;;;;;;;2.35;1.15;;;;;;;28.35;42.98;100839.72;5043547;28;20456;-50
2022/08/24 10:55:19;;;;;;;1.35;1.05;;;;;;;28.15;43.22;100840.91;5061373;28;20035;-52
2022/08/24 10:58:12;;;;;;;0.88;0.88;;;;;;;28.10;42.55;100829.13;5076093;28;20033;-49
2022/08/24 11:00:38;;;;;;;1.65;0.90;;;;;;;28.18;43.38;100847.78;5073611;28;20469;-53
2022/08/24 11:03:11;;;;;;;0.90;0.70;;;;;;;28.02;45.23;100849.16;5073203;28;20096;-53
2022/08/24 11:05:42;;;;;;;1.03;0.93;;;;;;;27.87;44.47;100837.22;5056616;28;20460;-52
2022/08/24 11:08:18;;;;;;;1.08;0.98;;;;;;;28.00;43.53;100855.81;5055732;28;20119;-54
2022/08/24 11:10:44;;;;;;;0.82;0.70;;;;;;;28.21;44.24;100838.88;5056663;28;20039;-51
2022/08/24 11:13:22;;;;;;;1.40;1.00;;;;;;;28.33;42.72;100850.28;5074220;28;20107;-55
2022/08/24 11:15:52;;;;;;;1.30;1.10;;;;;;;28.15;42.10;100849.19;5056036;28;20434;-52
2022/08/24 11:18:18;;;;;;;3.13;1.23;;;;;;;27.64;43.23;100861.06;5073933;28;20034;-52
2022/08/24 11:20:47;;;;;;;1.20;1.10;;;;;;;27.44;43.97;100851.13;5072711;28;20036;-53
2022/08/24 11:23:35;;;;;;;2.40;0.80;;;;;;;27.20;44.61;100845.63;5074096;28;20107;-55
2022/08/24 11:26:04;;;;;;;1.38;0.70;;;;;;;27.21;45.05;100853.63;5072579;28;20029;-55
2022/08/24 11:28:52;;;;;;;0.77;0.55;;;;;;;27.28;44.16;100852.47;5072252;28;20028;-52
2022/08/24 11:31:27;;;;;;;1.23;0.80;;;;;;;27.12;44.53;100851.81;5055647;28;20033;-50
2022/08/24 11:34:02;;;;;;;1.15;0.73;;;;;;;27.08;44.93;100846.09;5073795;28;20498;-51
2022/08/24 11:36:33;;;;;;;0.65;0.50;;;;;;;27.05;45.32;100843.91;5074089;28;20075;-53
2022/08/24 11:39:26;;;;;;;0.35;0.32;;;;;;;27.21;44.27;100861.91;5074245;28;20342;-52
2022/08/24 11:41:59;;;;;;;2.47;0.60;;;;;;;27.15;44.82;100853.97;5072717;28;20086;-51
2022/08/24 11:44:38;;;;;;;0.75;0.63;;;;;;;27.22;43.65;100846.16;5073810;28;20118;-51
2022/08/24 11:47:28;;;;;;;2.10;0.60;;;;;;;27.33;44.58;100849.63;5055809;28;20345;-53
2022/08/24 11:50:17;;;;;;;1.08;0.45;;;;;;;27.37;43.71;100853.44;5057131;28;20020;-56
2022/08/24 11:53:12;;;;;;;1.88;0.70;;;;;;;27.28;43.41;100850.50;5078129;28;20079;-54
2022/08/24 11:55:47;;;;;;;5.80;1.20;;;;;;;27.22;43.36;100821.34;5078084;28;20044;-55